BAW3KG EGLL-EHAM
Flight info
| Callsign | BAW3KG |
|---|---|
| Flight time | 0h 43m |
| Altitude | 23000 |
| Route | N0402F230 BPK Q295 BRAIN M197 REDFA |
| Aircraft | A320/M-SDE3FGIJ1KRWXY/SB1 |
Departure
| Time | 2026-05-06 13:48 |
|---|---|
| Airport | London Heathrow Airport (EGLL) |
Arrival
| Time | 2026-05-06 14:32 |
|---|---|
| Airport | Amsterdam Airport Schiphol (EHAM) |
| Time | Latitude | Longitude | Altitude | Speed | Heading |
|---|---|---|---|---|---|
| 2026-05-06 13:12 | 51.47271 | -0.48585 | 89 ft | 0 kts | 269° |
| 2026-05-06 13:38 | 51.47271 | -0.48564 | 89 ft | 4 kts | 269° |
| 2026-05-06 13:39 | 51.47271 | -0.48525 | 89 ft | 1 kts | 269° |
| 2026-05-06 13:39 | 51.47274 | -0.48490 | 88 ft | 4 kts | 232° |
| 2026-05-06 13:39 | 51.47293 | -0.48473 | 90 ft | 3 kts | 179° |
| 2026-05-06 13:39 | 51.47311 | -0.48473 | 88 ft | 0 kts | 179° |
| 2026-05-06 13:43 | 51.47308 | -0.48473 | 87 ft | 3 kts | 179° |
| 2026-05-06 13:43 | 51.47271 | -0.48473 | 89 ft | 7 kts | 180° |
| 2026-05-06 13:43 | 51.47214 | -0.48473 | 86 ft | 9 kts | 180° |
| 2026-05-06 13:43 | 51.47141 | -0.48472 | 86 ft | 12 kts | 180° |
| 2026-05-06 13:44 | 51.47052 | -0.48471 | 89 ft | 14 kts | 180° |
| 2026-05-06 13:44 | 51.46948 | -0.48470 | 87 ft | 16 kts | 179° |
| 2026-05-06 13:44 | 51.46852 | -0.48470 | 86 ft | 13 kts | 180° |
| 2026-05-06 13:44 | 51.46754 | -0.48470 | 86 ft | 14 kts | 180° |
| 2026-05-06 13:45 | 51.46671 | -0.48470 | 86 ft | 11 kts | 180° |
| 2026-05-06 13:45 | 51.46593 | -0.48469 | 86 ft | 1 kts | 180° |
| 2026-05-06 13:45 | 51.46592 | -0.48469 | 86 ft | 0 kts | 180° |
| 2026-05-06 13:46 | 51.46588 | -0.48469 | 86 ft | 3 kts | 180° |
| 2026-05-06 13:46 | 51.46541 | -0.48469 | 86 ft | 9 kts | 180° |
| 2026-05-06 13:46 | 51.46479 | -0.48461 | 86 ft | 8 kts | 150° |
| 2026-05-06 13:47 | 51.46478 | -0.48409 | 87 ft | 4 kts | 86° |
| 2026-05-06 13:47 | 51.46478 | -0.48402 | 87 ft | 0 kts | 87° |
| 2026-05-06 13:47 | 51.46478 | -0.48401 | 87 ft | 0 kts | 87° |
| 2026-05-06 13:47 | 51.46480 | -0.48288 | 88 ft | 36 kts | 88° |
| 2026-05-06 13:48 | 51.46482 | -0.47492 | 86 ft | 103 kts | 90° |
| 2026-05-06 13:48 | 51.46486 | -0.46060 | 89 ft | 152 kts | 89° |
| 2026-05-06 13:48 | 51.46498 | -0.44316 | 612 ft | 158 kts | 86° |
| 2026-05-06 13:48 | 51.46527 | -0.42519 | 1223 ft | 164 kts | 83° |
| 2026-05-06 13:49 | 51.46808 | -0.40768 | 1738 ft | 170 kts | 58° |
| 2026-05-06 13:49 | 51.47579 | -0.39175 | 2023 ft | 190 kts | 45° |
| 2026-05-06 13:49 | 51.48483 | -0.37477 | 2351 ft | 215 kts | 47° |
| 2026-05-06 13:49 | 51.49497 | -0.35547 | 2800 ft | 238 kts | 47° |
| 2026-05-06 13:50 | 51.50591 | -0.33450 | 3591 ft | 248 kts | 48° |
| 2026-05-06 13:50 | 51.51701 | -0.31301 | 4567 ft | 253 kts | 49° |
| 2026-05-06 13:50 | 51.52570 | -0.28812 | 5471 ft | 262 kts | 68° |
| 2026-05-06 13:50 | 51.53164 | -0.26020 | 6401 ft | 266 kts | 68° |
| 2026-05-06 13:51 | 51.53891 | -0.23269 | 7218 ft | 269 kts | 54° |
| 2026-05-06 13:51 | 51.55125 | -0.21018 | 8035 ft | 270 kts | 35° |
| 2026-05-06 13:51 | 51.56775 | -0.19581 | 8867 ft | 272 kts | 19° |
| 2026-05-06 13:51 | 51.58539 | -0.18418 | 9760 ft | 277 kts | 20° |
| 2026-05-06 13:52 | 51.60399 | -0.17434 | 10300 ft | 291 kts | 14° |
| 2026-05-06 13:52 | 51.62415 | -0.16486 | 10596 ft | 312 kts | 14° |
| 2026-05-06 13:52 | 51.64535 | -0.15505 | 11169 ft | 321 kts | 14° |
| 2026-05-06 13:52 | 51.66695 | -0.14506 | 11856 ft | 326 kts | 14° |
| 2026-05-06 13:53 | 51.68890 | -0.13489 | 12574 ft | 330 kts | 13° |
| 2026-05-06 13:53 | 51.71070 | -0.12238 | 13273 ft | 337 kts | 25° |
| 2026-05-06 13:53 | 51.73019 | -0.10080 | 13949 ft | 345 kts | 41° |
| 2026-05-06 13:53 | 51.74556 | -0.07058 | 14560 ft | 353 kts | 57° |
| 2026-05-06 13:54 | 51.75524 | -0.03385 | 15196 ft | 359 kts | 74° |
| 2026-05-06 13:54 | 51.75932 | 0.00565 | 15756 ft | 364 kts | 81° |
| 2026-05-06 13:54 | 51.76273 | 0.04643 | 16378 ft | 368 kts | 82° |
| 2026-05-06 13:54 | 51.76611 | 0.08748 | 17021 ft | 371 kts | 82° |
| 2026-05-06 13:55 | 51.76946 | 0.12913 | 17634 ft | 376 kts | 82° |
| 2026-05-06 13:55 | 51.77284 | 0.17106 | 18281 ft | 379 kts | 82° |
| 2026-05-06 13:55 | 51.77628 | 0.21338 | 18847 ft | 382 kts | 82° |
| 2026-05-06 13:55 | 51.77975 | 0.25622 | 19413 ft | 386 kts | 82° |
| 2026-05-06 13:56 | 51.78325 | 0.29932 | 20025 ft | 388 kts | 82° |
| 2026-05-06 13:56 | 51.78675 | 0.34279 | 20587 ft | 392 kts | 82° |
| 2026-05-06 13:56 | 51.79025 | 0.38659 | 21152 ft | 395 kts | 82° |
| 2026-05-06 13:56 | 51.79376 | 0.43080 | 21709 ft | 398 kts | 82° |
| 2026-05-06 13:57 | 51.79730 | 0.47539 | 22229 ft | 402 kts | 82° |
| 2026-05-06 13:57 | 51.80085 | 0.52028 | 22786 ft | 405 kts | 83° |
| 2026-05-06 13:57 | 51.80441 | 0.56557 | 22971 ft | 406 kts | 83° |
| 2026-05-06 13:57 | 51.80785 | 0.60952 | 22996 ft | 392 kts | 83° |
| 2026-05-06 13:58 | 51.81152 | 0.65281 | 22978 ft | 388 kts | 79° |
| 2026-05-06 13:58 | 51.81779 | 0.69526 | 22978 ft | 388 kts | 76° |
| 2026-05-06 13:58 | 51.82432 | 0.73752 | 22978 ft | 387 kts | 76° |
| 2026-05-06 13:58 | 51.83086 | 0.77980 | 22972 ft | 388 kts | 76° |
| 2026-05-06 13:59 | 51.83741 | 0.82214 | 22973 ft | 388 kts | 75° |
| 2026-05-06 13:59 | 51.84447 | 0.86423 | 22972 ft | 388 kts | 73° |
| 2026-05-06 13:59 | 51.85211 | 0.90609 | 22974 ft | 388 kts | 73° |
| 2026-05-06 13:59 | 51.85999 | 0.94775 | 22972 ft | 387 kts | 72° |
| 2026-05-06 14:00 | 51.86788 | 0.98949 | 22969 ft | 388 kts | 73° |
| 2026-05-06 14:00 | 51.87565 | 1.03122 | 22979 ft | 387 kts | 73° |
| 2026-05-06 14:00 | 51.88331 | 1.07299 | 22985 ft | 387 kts | 73° |
| 2026-05-06 14:00 | 51.89090 | 1.11475 | 22997 ft | 387 kts | 73° |
| 2026-05-06 14:01 | 51.89845 | 1.15654 | 22998 ft | 386 kts | 73° |
| 2026-05-06 14:01 | 51.90596 | 1.19831 | 22995 ft | 386 kts | 73° |
| 2026-05-06 14:01 | 51.91342 | 1.24003 | 22989 ft | 386 kts | 73° |
| 2026-05-06 14:01 | 51.92086 | 1.28182 | 22991 ft | 386 kts | 73° |
| 2026-05-06 14:02 | 51.92576 | 1.30942 | 22988 ft | 386 kts | 73° |
| 2026-05-06 14:02 | 51.93558 | 1.36482 | 22989 ft | 385 kts | 73° |
| 2026-05-06 14:02 | 51.94298 | 1.40657 | 22989 ft | 385 kts | 73° |
| 2026-05-06 14:02 | 51.95036 | 1.44834 | 22988 ft | 385 kts | 73° |
| 2026-05-06 14:03 | 51.95534 | 1.47651 | 22990 ft | 385 kts | 74° |
| 2026-05-06 14:03 | 51.96270 | 1.51830 | 22980 ft | 386 kts | 74° |
| 2026-05-06 14:03 | 51.97006 | 1.56016 | 22974 ft | 386 kts | 74° |
| 2026-05-06 14:03 | 51.97740 | 1.60206 | 22969 ft | 386 kts | 74° |
| 2026-05-06 14:04 | 51.98464 | 1.64343 | 22964 ft | 387 kts | 74° |
| 2026-05-06 14:04 | 51.99201 | 1.68546 | 22968 ft | 387 kts | 75° |
| 2026-05-06 14:04 | 51.99906 | 1.72757 | 22968 ft | 387 kts | 75° |
| 2026-05-06 14:04 | 52.00575 | 1.76991 | 22968 ft | 387 kts | 76° |
| 2026-05-06 14:05 | 52.01224 | 1.81236 | 22969 ft | 387 kts | 76° |
| 2026-05-06 14:05 | 52.01865 | 1.85482 | 22971 ft | 388 kts | 76° |
| 2026-05-06 14:05 | 52.02506 | 1.89732 | 22972 ft | 388 kts | 76° |
| 2026-05-06 14:05 | 52.03151 | 1.93982 | 22980 ft | 388 kts | 76° |
| 2026-05-06 14:06 | 52.03803 | 1.98229 | 22973 ft | 388 kts | 76° |
| 2026-05-06 14:06 | 52.04458 | 2.02483 | 22965 ft | 388 kts | 76° |
| 2026-05-06 14:06 | 52.05114 | 2.06737 | 22961 ft | 388 kts | 76° |
| 2026-05-06 14:06 | 52.05767 | 2.11000 | 22959 ft | 389 kts | 77° |
| 2026-05-06 14:07 | 52.06419 | 2.15270 | 22959 ft | 389 kts | 77° |
| 2026-05-06 14:07 | 52.07068 | 2.19533 | 22958 ft | 389 kts | 77° |
| 2026-05-06 14:07 | 52.07716 | 2.23812 | 22960 ft | 390 kts | 77° |
| 2026-05-06 14:07 | 52.08361 | 2.28083 | 22962 ft | 390 kts | 77° |
| 2026-05-06 14:08 | 52.09009 | 2.32370 | 22967 ft | 390 kts | 77° |
| 2026-05-06 14:08 | 52.09646 | 2.36595 | 22963 ft | 390 kts | 77° |
| 2026-05-06 14:08 | 52.10287 | 2.40872 | 22965 ft | 390 kts | 77° |
| 2026-05-06 14:08 | 52.10929 | 2.45167 | 22967 ft | 390 kts | 77° |
| 2026-05-06 14:09 | 52.11776 | 2.49351 | 22961 ft | 391 kts | 66° |
| 2026-05-06 14:09 | 52.13095 | 2.53309 | 22961 ft | 404 kts | 59° |
| 2026-05-06 14:09 | 52.14525 | 2.57235 | 22832 ft | 399 kts | 59° |
| 2026-05-06 14:09 | 52.15929 | 2.61093 | 22430 ft | 394 kts | 59° |
| 2026-05-06 14:10 | 52.17314 | 2.64916 | 21984 ft | 390 kts | 59° |
| 2026-05-06 14:10 | 52.18688 | 2.68712 | 21530 ft | 388 kts | 59° |
| 2026-05-06 14:10 | 52.20052 | 2.72485 | 21084 ft | 385 kts | 59° |
| 2026-05-06 14:10 | 52.21403 | 2.76232 | 20615 ft | 382 kts | 59° |
| 2026-05-06 14:11 | 52.22745 | 2.79962 | 20187 ft | 378 kts | 59° |
| 2026-05-06 14:11 | 52.24054 | 2.83611 | 19732 ft | 377 kts | 59° |
| 2026-05-06 14:11 | 52.25366 | 2.87275 | 19403 ft | 371 kts | 59° |
| 2026-05-06 14:11 | 52.26656 | 2.90888 | 19070 ft | 366 kts | 59° |
| 2026-05-06 14:12 | 52.27931 | 2.94454 | 18746 ft | 361 kts | 59° |
| 2026-05-06 14:12 | 52.29187 | 2.97972 | 18409 ft | 356 kts | 59° |
| 2026-05-06 14:12 | 52.30424 | 3.01448 | 18082 ft | 352 kts | 59° |
| 2026-05-06 14:12 | 52.31645 | 3.04883 | 17749 ft | 347 kts | 59° |
| 2026-05-06 14:13 | 52.32850 | 3.08270 | 17451 ft | 343 kts | 59° |
| 2026-05-06 14:13 | 52.34046 | 3.11631 | 17160 ft | 341 kts | 59° |
| 2026-05-06 14:13 | 52.35235 | 3.14973 | 16843 ft | 340 kts | 58° |
| 2026-05-06 14:13 | 52.36421 | 3.18319 | 16530 ft | 339 kts | 59° |
| 2026-05-06 14:14 | 52.37597 | 3.21641 | 16230 ft | 336 kts | 59° |
| 2026-05-06 14:14 | 52.38766 | 3.24952 | 15927 ft | 336 kts | 59° |
| 2026-05-06 14:14 | 52.39928 | 3.28253 | 15631 ft | 332 kts | 59° |
| 2026-05-06 14:14 | 52.41077 | 3.31528 | 15334 ft | 331 kts | 58° |
| 2026-05-06 14:15 | 52.42221 | 3.34788 | 15037 ft | 329 kts | 59° |
| 2026-05-06 14:15 | 52.43356 | 3.38025 | 14742 ft | 326 kts | 59° |
| 2026-05-06 14:15 | 52.44459 | 3.41272 | 14444 ft | 327 kts | 64° |
| 2026-05-06 14:15 | 52.45187 | 3.44782 | 14154 ft | 325 kts | 76° |
| 2026-05-06 14:16 | 52.45694 | 3.48378 | 13865 ft | 323 kts | 76° |
| 2026-05-06 14:16 | 52.46200 | 3.51915 | 13563 ft | 322 kts | 76° |
| 2026-05-06 14:16 | 52.46713 | 3.55475 | 13269 ft | 319 kts | 76° |
| 2026-05-06 14:16 | 52.47222 | 3.59015 | 12979 ft | 318 kts | 76° |
| 2026-05-06 14:17 | 52.47726 | 3.62541 | 12686 ft | 317 kts | 76° |
| 2026-05-06 14:17 | 52.48227 | 3.66044 | 12403 ft | 314 kts | 76° |
| 2026-05-06 14:17 | 52.48722 | 3.69527 | 12122 ft | 313 kts | 75° |
| 2026-05-06 14:17 | 52.49217 | 3.73000 | 11842 ft | 311 kts | 76° |
| 2026-05-06 14:18 | 52.49707 | 3.76443 | 11563 ft | 309 kts | 75° |
| 2026-05-06 14:18 | 52.50192 | 3.79864 | 11270 ft | 307 kts | 75° |
| 2026-05-06 14:18 | 52.50671 | 3.83267 | 11021 ft | 303 kts | 76° |
| 2026-05-06 14:18 | 52.51138 | 3.86607 | 10774 ft | 298 kts | 75° |
| 2026-05-06 14:19 | 52.51599 | 3.89911 | 10478 ft | 295 kts | 75° |
| 2026-05-06 14:19 | 52.52049 | 3.93181 | 10211 ft | 293 kts | 77° |
| 2026-05-06 14:19 | 52.52189 | 3.96503 | 9950 ft | 292 kts | 92° |
| 2026-05-06 14:19 | 52.51803 | 3.99764 | 9802 ft | 293 kts | 107° |
| 2026-05-06 14:20 | 52.51054 | 4.02883 | 9695 ft | 293 kts | 110° |
| 2026-05-06 14:20 | 52.50294 | 4.05977 | 9567 ft | 292 kts | 110° |
| 2026-05-06 14:20 | 52.49549 | 4.09020 | 9447 ft | 290 kts | 110° |
| 2026-05-06 14:20 | 52.48800 | 4.12089 | 9329 ft | 289 kts | 110° |
| 2026-05-06 14:21 | 52.48053 | 4.15146 | 9215 ft | 288 kts | 109° |
| 2026-05-06 14:21 | 52.47308 | 4.18198 | 9084 ft | 288 kts | 110° |
| 2026-05-06 14:21 | 52.46567 | 4.21235 | 8857 ft | 285 kts | 110° |
| 2026-05-06 14:21 | 52.45834 | 4.24228 | 8548 ft | 282 kts | 110° |
| 2026-05-06 14:22 | 52.45104 | 4.27196 | 8226 ft | 279 kts | 110° |
| 2026-05-06 14:22 | 52.44378 | 4.30135 | 7919 ft | 277 kts | 110° |
| 2026-05-06 14:22 | 52.43658 | 4.33048 | 7610 ft | 274 kts | 110° |
| 2026-05-06 14:22 | 52.42949 | 4.35918 | 7299 ft | 266 kts | 110° |
| 2026-05-06 14:23 | 52.42268 | 4.38661 | 6998 ft | 254 kts | 110° |
| 2026-05-06 14:23 | 52.41616 | 4.41282 | 6701 ft | 243 kts | 109° |
| 2026-05-06 14:23 | 52.40987 | 4.43809 | 6435 ft | 238 kts | 109° |
| 2026-05-06 14:23 | 52.40370 | 4.46288 | 6250 ft | 232 kts | 109° |
| 2026-05-06 14:24 | 52.39765 | 4.48692 | 5948 ft | 232 kts | 112° |
| 2026-05-06 14:24 | 52.38781 | 4.50772 | 5662 ft | 234 kts | 140° |
| 2026-05-06 14:24 | 52.37300 | 4.51871 | 5342 ft | 238 kts | 168° |
| 2026-05-06 14:24 | 52.35647 | 4.51645 | 5007 ft | 243 kts | 199° |
| 2026-05-06 14:25 | 52.34162 | 4.50268 | 4645 ft | 248 kts | 212° |
| 2026-05-06 14:25 | 52.32725 | 4.48726 | 4389 ft | 247 kts | 212° |
| 2026-05-06 14:25 | 52.31289 | 4.47180 | 4180 ft | 246 kts | 212° |
| 2026-05-06 14:25 | 52.29881 | 4.45664 | 3970 ft | 239 kts | 212° |
| 2026-05-06 14:26 | 52.28477 | 4.44283 | 3756 ft | 232 kts | 201° |
| 2026-05-06 14:26 | 52.26959 | 4.43567 | 3550 ft | 223 kts | 184° |
| 2026-05-06 14:26 | 52.25435 | 4.43579 | 3349 ft | 215 kts | 166° |
| 2026-05-06 14:26 | 52.24028 | 4.44234 | 3140 ft | 207 kts | 151° |
| 2026-05-06 14:27 | 52.22819 | 4.45377 | 3000 ft | 197 kts | 139° |
| 2026-05-06 14:27 | 52.21864 | 4.46904 | 2869 ft | 190 kts | 120° |
| 2026-05-06 14:27 | 52.21290 | 4.48794 | 2746 ft | 184 kts | 102° |
| 2026-05-06 14:27 | 52.21042 | 4.50810 | 2618 ft | 180 kts | 89° |
| 2026-05-06 14:28 | 52.21132 | 4.52818 | 2484 ft | 177 kts | 73° |
| 2026-05-06 14:28 | 52.21598 | 4.54618 | 2357 ft | 175 kts | 59° |
| 2026-05-06 14:28 | 52.22207 | 4.56307 | 2259 ft | 168 kts | 57° |
| 2026-05-06 14:28 | 52.22802 | 4.57876 | 2179 ft | 158 kts | 57° |
| 2026-05-06 14:29 | 52.23373 | 4.59365 | 2023 ft | 152 kts | 55° |
| 2026-05-06 14:29 | 52.23928 | 4.60805 | 1842 ft | 148 kts | 56° |
| 2026-05-06 14:29 | 52.24459 | 4.62182 | 1652 ft | 139 kts | 55° |
| 2026-05-06 14:29 | 52.24962 | 4.63483 | 1474 ft | 134 kts | 55° |
| 2026-05-06 14:30 | 52.25455 | 4.64760 | 1297 ft | 132 kts | 55° |
| 2026-05-06 14:30 | 52.25945 | 4.66028 | 1111 ft | 131 kts | 55° |
| 2026-05-06 14:30 | 52.26432 | 4.67289 | 935 ft | 131 kts | 54° |
| 2026-05-06 14:30 | 52.26919 | 4.68552 | 750 ft | 132 kts | 55° |
| 2026-05-06 14:31 | 52.27405 | 4.69813 | 590 ft | 130 kts | 56° |
| 2026-05-06 14:31 | 52.27890 | 4.71077 | 421 ft | 131 kts | 57° |
| 2026-05-06 14:31 | 52.28366 | 4.72351 | 236 ft | 131 kts | 56° |
| 2026-05-06 14:31 | 52.28862 | 4.73604 | 57 ft | 131 kts | 58° |
| 2026-05-06 14:32 | 52.29327 | 4.74814 | -1 ft | 109 kts | 57° |
| 2026-05-06 14:32 | 52.29620 | 4.75570 | -1 ft | 41 kts | 57° |
| 2026-05-06 14:32 | 52.29764 | 4.75789 | -2 ft | 24 kts | 21° |
| 2026-05-06 14:32 | 52.29886 | 4.75894 | -1 ft | 19 kts | 28° |
| 2026-05-06 14:33 | 52.29985 | 4.75985 | -1 ft | 12 kts | 34° |
| 2026-05-06 14:33 | 52.30037 | 4.76107 | -1 ft | 15 kts | 58° |
| 2026-05-06 14:33 | 52.30096 | 4.76261 | -1 ft | 17 kts | 58° |
| 2026-05-06 14:33 | 52.30165 | 4.76439 | -1 ft | 20 kts | 58° |
| 2026-05-06 14:34 | 52.30242 | 4.76638 | -1 ft | 22 kts | 57° |
| 2026-05-06 14:34 | 52.30313 | 4.76823 | -1 ft | 18 kts | 58° |
| 2026-05-06 14:34 | 52.30386 | 4.77013 | -1 ft | 21 kts | 58° |
| 2026-05-06 14:34 | 52.30453 | 4.77189 | -1 ft | 18 kts | 58° |
| 2026-05-06 14:35 | 52.30503 | 4.77319 | -1 ft | 11 kts | 56° |
| 2026-05-06 14:35 | 52.30573 | 4.77311 | -1 ft | 13 kts | 325° |
| 2026-05-06 14:35 | 52.30636 | 4.77245 | -1 ft | 10 kts | 319° |
| 2026-05-06 14:35 | 52.30649 | 4.77140 | -1 ft | 9 kts | 271° |
| 2026-05-06 14:36 | 52.30668 | 4.77086 | -1 ft | 5 kts | 346° |
| 2026-05-06 14:36 | 52.30692 | 4.77087 | -1 ft | 4 kts | 4° |
| 2026-05-06 14:36 | 52.30707 | 4.77089 | -1 ft | 1 kts | 3° |
| 2026-05-06 14:36 | 52.30714 | 4.77089 | -1 ft | 1 kts | 3° |
| 2026-05-06 14:37 | 52.30715 | 4.77089 | -1 ft | 0 kts | 3° |